RJBB/KIX METAR and TAF weather

Enter ICAO airport designator
Station Type Date Time Source
RJBB METAR 2021/01/27 13:00 UTC NOAA

RJBB 271300Z 01021KT 9999 FEW030 BKN050 10/03 Q1017 NOSIG


Station Type Date Time Source
RJBB Decoded METAR 2021/01/27 13:00 UTC NOAA

Kansai International Airport, Japan (RJBB) 34-25N 135-15E 8M
Jan 27, 2021 - 08:00 AM EST / 2021.01.27 1300 UTC
Wind: from the N (010 degrees) at 24 MPH (21 KT):0
Visibility: greater than 7 mile(s):0
Sky conditions: mostly cloudy
Temperature: 50 F (10 C)
Dew Point: 37 F (3 C)
Relative Humidity: 61%
Pressure (altimeter): 30.03 in. Hg (1017 hPa)
ob: RJBB 271300Z 01021KT 9999 FEW030 BKN050 10/03 Q1017 NOSIG
cycle: 13

Station Type Date Time Source
RJBB TAF 2021/01/27 12:30 UTC NOAA

TAF TAF RJBB 271106Z 2712/2818 03016KT 9999 FEW030
BECMG 2803/2806 30006KT
BECMG 2809/2812 26025KT
TEMPO 2812/2818 28032G44KT

Example: see airport list